createdAt,value
2023-04-16T00:02:29.488Z,55.31
2023-04-16T00:05:00.295Z,55.56
2023-04-16T00:07:31.146Z,55.52
2023-04-16T00:10:01.827Z,55.59
2023-04-16T00:12:32.472Z,55.70
2023-04-16T00:15:03.148Z,55.57
2023-04-16T00:17:33.861Z,55.66
2023-04-16T00:20:04.635Z,55.72
2023-04-16T00:22:35.211Z,55.74
2023-04-16T00:25:06.349Z,55.77
2023-04-16T00:27:36.976Z,55.74
2023-04-16T00:30:09.208Z,55.71
2023-04-16T00:32:39.764Z,55.60
2023-04-16T00:35:11.212Z,55.91
2023-04-16T00:37:41.723Z,55.73
2023-04-16T00:40:13.663Z,55.77
2023-04-16T00:42:42.986Z,55.72
2023-04-16T00:45:14.560Z,55.54
2023-04-16T00:47:45.182Z,55.49
2023-04-16T00:50:16.002Z,55.38
2023-04-16T00:52:47.780Z,55.41
2023-04-16T00:55:19.159Z,55.33
2023-04-16T00:57:49.768Z,55.32
2023-04-16T01:00:21.405Z,55.45
2023-04-16T01:02:52.089Z,55.48
2023-04-16T01:05:22.925Z,55.27
2023-04-16T01:07:53.468Z,55.26
2023-04-16T01:10:24.248Z,55.31
2023-04-16T01:12:55.345Z,55.38
2023-04-16T01:15:26.133Z,55.37
2023-04-16T01:17:56.704Z,55.44
2023-04-16T01:20:27.343Z,55.54
2023-04-16T01:22:57.879Z,55.58
2023-04-16T01:25:28.456Z,55.47
2023-04-16T01:27:59.371Z,55.61
2023-04-16T01:30:30.598Z,55.58
2023-04-16T01:33:23.010Z,55.68
2023-04-16T01:35:53.743Z,55.58
2023-04-16T01:38:24.365Z,55.58
2023-04-16T01:40:59.546Z,55.59
2023-04-16T01:43:30.173Z,55.65
2023-04-16T01:46:13.544Z,55.55
2023-04-16T01:48:45.279Z,55.59
2023-04-16T01:51:15.892Z,55.57
2023-04-16T01:53:46.399Z,55.51
2023-04-16T01:56:16.969Z,55.48
2023-04-16T01:58:47.590Z,55.57
2023-04-16T02:01:19.002Z,55.54
2023-04-16T02:03:50.241Z,55.51
2023-04-16T02:06:20.914Z,55.70
2023-04-16T02:08:51.661Z,55.66
2023-04-16T02:11:23.624Z,55.54
2023-04-16T02:13:54.511Z,55.65
2023-04-16T02:16:26.471Z,55.64
2023-04-16T02:19:03.486Z,55.76
2023-04-16T02:21:35.530Z,55.77
2023-04-16T02:24:06.535Z,55.74
2023-04-16T02:26:37.709Z,55.74
2023-04-16T02:29:12.002Z,55.65
2023-04-16T02:31:46.821Z,55.82
2023-04-16T02:34:17.946Z,55.81
2023-04-16T02:36:48.795Z,55.85
2023-04-16T02:39:20.146Z,56.02
2023-04-16T02:41:50.738Z,56.10
2023-04-16T02:44:21.368Z,56.18
2023-04-16T02:46:51.897Z,56.22
2023-04-16T02:49:22.639Z,56.39
2023-04-16T02:51:53.263Z,56.42
2023-04-16T02:54:23.772Z,56.18
2023-04-16T02:56:54.745Z,56.45
2023-04-16T02:59:25.807Z,56.52
2023-04-16T03:01:56.546Z,56.59
2023-04-16T03:04:27.444Z,56.42
2023-04-16T03:06:58.029Z,56.76
2023-04-16T03:09:28.522Z,56.96
2023-04-16T03:11:59.049Z,56.84
2023-04-16T03:14:29.730Z,56.86
2023-04-16T03:17:00.329Z,56.51
2023-04-16T03:19:31.318Z,56.85
2023-04-16T03:22:01.842Z,56.77
2023-04-16T03:24:32.352Z,56.83
2023-04-16T03:27:03.286Z,56.88
2023-04-16T03:29:33.990Z,56.83
2023-04-16T03:32:04.535Z,56.68
2023-04-16T03:34:36.856Z,56.82
2023-04-16T03:37:09.048Z,56.94
2023-04-16T03:39:40.118Z,56.97
2023-04-16T03:42:10.722Z,56.89
2023-04-16T03:44:41.297Z,56.85
2023-04-16T03:47:13.103Z,56.97
2023-04-16T03:49:43.700Z,57.11
2023-04-16T03:52:15.100Z,57.01
2023-04-16T03:54:45.988Z,57.00
2023-04-16T03:57:25.091Z,56.75
2023-04-16T03:59:58.200Z,57.02
2023-04-16T04:02:30.516Z,57.01
2023-04-16T04:05:01.291Z,56.95
2023-04-16T04:07:32.502Z,57.05
2023-04-16T04:10:03.327Z,57.11
2023-04-16T04:12:36.805Z,56.95
2023-04-16T04:15:09.327Z,57.03
2023-04-16T04:17:39.993Z,57.30
2023-04-16T04:20:12.858Z,57.08
2023-04-16T04:22:46.394Z,57.22
2023-04-16T04:25:17.159Z,57.53
2023-04-16T04:27:47.710Z,57.40
2023-04-16T04:30:18.391Z,57.44
2023-04-16T04:32:49.024Z,57.36
2023-04-16T04:35:20.111Z,57.39
2023-04-16T04:37:51.752Z,57.57
2023-04-16T04:40:23.542Z,57.54
2023-04-16T04:42:56.121Z,57.55
2023-04-16T04:45:27.618Z,57.79
2023-04-16T04:47:59.693Z,57.57
2023-04-16T04:50:30.654Z,57.47
2023-04-16T04:53:01.414Z,57.42
2023-04-16T04:55:32.004Z,57.82
2023-04-16T04:58:02.681Z,57.36
2023-04-16T05:00:33.350Z,57.58
2023-04-16T05:03:06.531Z,57.56
2023-04-16T05:05:37.231Z,57.68
2023-04-16T05:08:07.970Z,57.59
2023-04-16T05:10:38.566Z,57.53
2023-04-16T05:13:09.189Z,57.70
2023-04-16T05:15:40.275Z,57.91
2023-04-16T05:18:10.806Z,57.93
2023-04-16T05:20:41.347Z,57.94
2023-04-16T05:23:11.781Z,58.13
2023-04-16T05:25:42.286Z,58.33
2023-04-16T05:28:12.857Z,58.40
2023-04-16T05:30:43.308Z,58.24
2023-04-16T05:33:13.802Z,58.27
2023-04-16T05:35:44.257Z,58.47
2023-04-16T05:38:14.706Z,58.38
2023-04-16T05:40:45.131Z,58.38
2023-04-16T05:43:15.577Z,58.44
2023-04-16T05:45:46.080Z,58.39
2023-04-16T05:48:16.542Z,58.51
2023-04-16T05:50:47.018Z,58.58
2023-04-16T05:53:18.993Z,58.84
2023-04-16T05:55:49.493Z,58.82
2023-04-16T05:58:19.952Z,58.55
2023-04-16T06:00:50.597Z,58.85
2023-04-16T06:03:21.457Z,58.76
2023-04-16T06:05:52.120Z,58.99
2023-04-16T06:08:22.616Z,59.01
2023-04-16T06:10:53.212Z,59.03
2023-04-16T06:13:23.761Z,59.00
2023-04-16T06:15:54.288Z,59.13
2023-04-16T06:18:24.857Z,59.13
2023-04-16T06:20:55.441Z,59.36
2023-04-16T06:23:26.032Z,59.44
2023-04-16T06:25:56.642Z,59.48
2023-04-16T06:28:27.322Z,59.35
2023-04-16T06:31:18.008Z,59.32
2023-04-16T06:34:43.720Z,59.50
2023-04-16T06:37:14.329Z,59.79
2023-04-16T06:39:56.629Z,59.79
2023-04-16T06:42:27.348Z,59.70
2023-04-16T06:44:57.834Z,59.94
2023-04-16T06:47:28.498Z,59.80
2023-04-16T06:50:21.327Z,60.05
2023-04-16T06:53:17.180Z,60.18
2023-04-16T06:55:47.686Z,59.95
2023-04-16T06:58:18.201Z,59.97
2023-04-16T07:00:52.996Z,59.91
2023-04-16T07:03:29.172Z,59.86
2023-04-16T07:05:59.841Z,59.94
2023-04-16T07:08:30.558Z,60.09
2023-04-16T07:11:01.185Z,60.08
2023-04-16T07:13:31.715Z,59.83
2023-04-16T07:16:02.301Z,60.21
2023-04-16T07:18:33.073Z,59.89
2023-04-16T07:21:03.613Z,59.97
2023-04-16T07:23:34.084Z,59.77
2023-04-16T07:26:04.549Z,59.83
2023-04-16T07:28:35.016Z,59.84
2023-04-16T07:31:05.832Z,59.94
2023-04-16T07:33:36.477Z,59.79
2023-04-16T07:36:07.987Z,60.10
2023-04-16T07:38:38.422Z,60.06
2023-04-16T07:41:08.971Z,60.16
2023-04-16T07:43:39.922Z,59.96
2023-04-16T07:46:10.448Z,60.19
2023-04-16T07:48:40.976Z,60.06
2023-04-16T07:51:12.489Z,60.05
2023-04-16T07:53:43.664Z,60.18
2023-04-16T07:56:14.145Z,60.16
2023-04-16T07:58:44.617Z,59.99
2023-04-16T08:01:15.153Z,60.43
2023-04-16T08:03:46.304Z,60.30
2023-04-16T08:06:16.886Z,60.41
2023-04-16T08:08:47.419Z,60.38
2023-04-16T08:11:17.879Z,60.51
2023-04-16T08:13:48.633Z,60.47
2023-04-16T08:16:19.185Z,60.65
2023-04-16T08:18:49.668Z,60.59
2023-04-16T08:21:20.186Z,60.86
2023-04-16T08:23:50.829Z,60.57
2023-04-16T08:26:21.554Z,60.59
2023-04-16T08:28:54.975Z,60.65
2023-04-16T08:31:25.667Z,60.70
2023-04-16T08:33:56.450Z,60.56
2023-04-16T08:36:27.771Z,60.78
2023-04-16T08:38:58.385Z,60.81
2023-04-16T08:41:30.848Z,60.63
2023-04-16T08:44:06.671Z,60.48
2023-04-16T08:46:39.367Z,60.25
2023-04-16T08:49:18.067Z,59.97
2023-04-16T08:51:53.241Z,59.61
2023-04-16T08:54:40.346Z,59.33
2023-04-16T08:57:13.657Z,59.57
2023-04-16T08:59:47.116Z,59.48
2023-04-16T09:02:18.106Z,59.31
2023-04-16T09:04:49.723Z,58.93
2023-04-16T09:07:23.109Z,58.58
2023-04-16T09:09:56.060Z,58.18
2023-04-16T09:12:28.413Z,57.94
2023-04-16T09:15:02.808Z,57.75
2023-04-16T09:17:35.403Z,57.70
2023-04-16T09:20:08.737Z,57.60
2023-04-16T09:22:40.129Z,57.39
2023-04-16T09:25:12.409Z,57.15
2023-04-16T09:27:43.765Z,56.82
2023-04-16T09:30:26.131Z,56.68
2023-04-16T09:33:16.838Z,56.46
2023-04-16T09:35:51.666Z,55.90
2023-04-16T09:38:22.734Z,55.97
2023-04-16T09:41:09.152Z,55.96
2023-04-16T09:43:39.964Z,56.05
2023-04-16T09:46:13.960Z,55.94
2023-04-16T09:48:48.257Z,56.17
2023-04-16T09:51:18.828Z,56.43
2023-04-16T09:53:52.809Z,56.46
2023-04-16T09:56:28.021Z,56.25
2023-04-16T09:59:02.248Z,56.43
2023-04-16T10:01:33.512Z,56.42
2023-04-16T10:04:07.773Z,56.53
2023-04-16T10:06:38.513Z,56.36
2023-04-16T10:09:12.198Z,55.79
2023-04-16T10:11:43.287Z,55.47
2023-04-16T10:14:13.778Z,55.52
2023-04-16T10:16:44.526Z,55.71
2023-04-16T10:19:15.730Z,55.61
2023-04-16T10:21:46.892Z,55.85
2023-04-16T10:24:18.999Z,55.76
2023-04-16T10:27:41.346Z,55.55
2023-04-16T10:30:16.747Z,54.95
2023-04-16T10:32:48.572Z,54.59
2023-04-16T10:35:21.974Z,54.25
2023-04-16T10:37:57.020Z,54.07
2023-04-16T10:40:29.553Z,53.06
2023-04-16T10:43:01.600Z,52.41
2023-04-16T10:45:39.719Z,52.48
2023-04-16T10:48:11.871Z,52.53
2023-04-16T10:50:42.589Z,52.87
2023-04-16T10:53:24.383Z,52.65
2023-04-16T10:56:13.672Z,52.48
2023-04-16T10:58:44.509Z,52.54
2023-04-16T11:01:17.156Z,52.72
2023-04-16T11:03:49.610Z,52.28
2023-04-16T11:06:27.758Z,52.41
2023-04-16T11:08:58.608Z,52.15
2023-04-16T11:11:38.173Z,51.78
2023-04-16T11:14:10.420Z,51.15
2023-04-16T11:16:43.567Z,51.06
2023-04-16T11:19:19.719Z,50.72
2023-04-16T11:21:50.286Z,50.40
2023-04-16T11:24:20.858Z,50.41
2023-04-16T11:26:53.628Z,50.27
2023-04-16T11:29:24.224Z,50.54
2023-04-16T11:31:55.751Z,50.80
2023-04-16T11:34:27.093Z,50.75
2023-04-16T11:36:57.970Z,50.77
2023-04-16T11:39:28.501Z,51.00
2023-04-16T11:41:58.993Z,51.14
2023-04-16T11:44:30.445Z,50.80
2023-04-16T11:47:06.959Z,50.78
2023-04-16T11:49:37.464Z,50.86
2023-04-16T11:52:08.179Z,50.44
2023-04-16T11:54:38.720Z,51.23
2023-04-16T11:57:09.549Z,50.74
2023-04-16T12:00:01.540Z,50.78
2023-04-16T12:02:44.711Z,50.57
2023-04-16T12:08:11.680Z,50.30
2023-04-16T12:10:56.793Z,50.37
2023-04-16T12:13:27.391Z,49.95
2023-04-16T12:15:58.670Z,49.66
2023-04-16T12:18:29.251Z,49.45
2023-04-16T12:20:59.741Z,49.04
2023-04-16T12:23:31.798Z,49.02
2023-04-16T12:26:12.228Z,50.17
2023-04-16T12:28:42.744Z,50.71
2023-04-16T12:31:13.308Z,50.45
2023-04-16T12:33:43.931Z,50.33
2023-04-16T12:36:24.706Z,49.97
2023-04-16T12:38:55.161Z,49.75
2023-04-16T12:41:26.231Z,49.72
2023-04-16T12:44:06.857Z,49.88
2023-04-16T12:46:38.390Z,50.21
2023-04-16T12:49:10.603Z,49.27
2023-04-16T12:51:41.690Z,48.69
2023-04-16T12:54:12.237Z,48.08
2023-04-16T12:56:42.705Z,48.25
2023-04-16T12:59:13.215Z,48.38
2023-04-16T13:01:43.808Z,48.07
2023-04-16T13:04:14.351Z,48.40
2023-04-16T13:06:45.013Z,48.12
2023-04-16T13:09:15.602Z,47.85
2023-04-16T13:11:46.167Z,48.14
2023-04-16T13:14:16.710Z,47.82
2023-04-16T13:16:47.194Z,47.16
2023-04-16T13:19:19.216Z,46.79
2023-04-16T13:21:50.011Z,46.93
2023-04-16T13:24:20.512Z,46.77
2023-04-16T13:26:52.102Z,46.16
2023-04-16T13:29:22.694Z,46.35
2023-04-16T13:31:53.326Z,46.46
2023-04-16T13:34:24.597Z,46.35
2023-04-16T13:36:55.193Z,46.11
2023-04-16T13:39:26.048Z,46.03
2023-04-16T13:41:56.579Z,46.02
2023-04-16T13:44:27.114Z,45.87
2023-04-16T13:46:57.721Z,45.65
2023-04-16T13:49:28.368Z,46.02
2023-04-16T13:51:58.956Z,45.76
2023-04-16T13:54:29.806Z,45.57
2023-04-16T13:57:00.344Z,45.33
2023-04-16T13:59:30.933Z,44.82
2023-04-16T14:02:01.825Z,45.02
2023-04-16T14:04:32.350Z,44.83
2023-04-16T14:07:02.840Z,44.44
2023-04-16T14:09:36.876Z,43.53
2023-04-16T14:12:08.417Z,43.43
2023-04-16T14:14:39.055Z,43.00
2023-04-16T14:17:10.815Z,42.61
2023-04-16T14:19:39.813Z,42.41
2023-04-16T14:22:10.766Z,42.48
2023-04-16T14:24:41.296Z,42.05
2023-04-16T14:27:12.229Z,42.14
2023-04-16T14:29:42.873Z,42.40
2023-04-16T14:32:13.622Z,42.22
2023-04-16T14:34:44.350Z,42.12
2023-04-16T14:37:17.286Z,41.61
2023-04-16T14:39:51.053Z,41.07
2023-04-16T14:42:22.433Z,40.80
2023-04-16T14:44:52.872Z,40.90
2023-04-16T14:47:23.617Z,41.21
2023-04-16T14:49:54.129Z,41.48
2023-04-16T14:52:24.650Z,41.15
2023-04-16T14:54:55.977Z,40.76
2023-04-16T14:57:26.803Z,40.64
2023-04-16T14:59:57.268Z,40.45
2023-04-16T15:02:27.889Z,40.38
2023-04-16T15:04:58.488Z,40.36
2023-04-16T15:07:29.015Z,40.08
2023-04-16T15:09:59.911Z,40.06
2023-04-16T15:12:30.440Z,40.15
2023-04-16T15:15:00.933Z,40.29
2023-04-16T15:17:31.514Z,40.49
2023-04-16T15:20:02.085Z,40.34
2023-04-16T15:22:32.530Z,40.38
2023-04-16T15:25:03.412Z,40.66
2023-04-16T15:27:33.914Z,40.80
2023-04-16T15:30:04.644Z,40.61
2023-04-16T15:32:35.271Z,40.26
2023-04-16T15:35:07.045Z,40.13
2023-04-16T15:37:38.883Z,40.08
2023-04-16T15:40:11.199Z,40.27
2023-04-16T15:42:41.674Z,40.11
2023-04-16T15:45:13.062Z,39.74
2023-04-16T15:47:45.395Z,39.69
2023-04-16T15:50:16.106Z,39.57
2023-04-16T15:52:46.675Z,39.19
2023-04-16T15:55:18.007Z,38.79
2023-04-16T15:57:48.872Z,38.55
2023-04-16T16:00:20.816Z,38.74
2023-04-16T16:02:51.736Z,38.82
2023-04-16T16:09:56.373Z,38.85
2023-04-16T16:12:27.368Z,38.72
2023-04-16T16:14:58.313Z,38.46
2023-04-16T16:17:29.227Z,39.03
2023-04-16T16:20:01.132Z,39.27
2023-04-16T16:22:31.780Z,39.27
2023-04-16T16:25:02.281Z,39.11
2023-04-16T16:27:32.913Z,39.11
2023-04-16T16:30:04.745Z,39.26
2023-04-16T16:32:38.087Z,39.16
2023-04-16T16:35:10.990Z,39.15
2023-04-16T16:37:41.644Z,39.12
2023-04-16T16:40:13.070Z,39.14
2023-04-16T16:42:43.581Z,39.61
2023-04-16T16:45:14.512Z,39.68
2023-04-16T16:47:45.981Z,39.51
2023-04-16T16:50:16.634Z,39.71
2023-04-16T16:52:47.310Z,39.71
2023-04-16T16:55:19.007Z,39.84
2023-04-16T16:57:50.110Z,39.96
2023-04-16T17:00:21.991Z,39.90
2023-04-16T17:02:52.800Z,40.03
2023-04-16T17:05:24.351Z,40.27
2023-04-16T17:07:54.902Z,40.20
2023-04-16T17:10:25.470Z,40.45
2023-04-16T17:12:56.012Z,40.97
2023-04-16T17:15:26.918Z,41.90
2023-04-16T17:17:57.535Z,42.33
2023-04-16T17:20:28.319Z,42.58
2023-04-16T17:22:59.499Z,42.93
2023-04-16T17:25:30.276Z,43.29
2023-04-16T17:28:01.492Z,43.38
2023-04-16T17:30:32.953Z,43.41
2023-04-16T17:33:04.729Z,43.06
2023-04-16T17:35:35.663Z,43.35
2023-04-16T17:38:06.184Z,43.41
2023-04-16T17:40:36.798Z,43.75
2023-04-16T17:43:07.373Z,43.97
2023-04-16T17:45:37.979Z,44.22
2023-04-16T17:48:08.937Z,44.23
2023-04-16T17:50:39.835Z,44.21
2023-04-16T17:53:11.133Z,44.27
2023-04-16T17:55:42.772Z,44.35
2023-04-16T17:58:13.616Z,44.75
2023-04-16T18:00:45.887Z,45.08
2023-04-16T18:03:17.041Z,45.32
2023-04-16T18:05:48.320Z,45.59
2023-04-16T18:08:18.810Z,45.72
2023-04-16T18:10:49.316Z,45.73
2023-04-16T18:13:19.838Z,45.99
2023-04-16T18:15:50.435Z,46.15
2023-04-16T18:18:21.449Z,46.33
2023-04-16T18:20:53.103Z,46.55
2023-04-16T18:23:23.573Z,46.57
2023-04-16T18:25:54.518Z,46.74
2023-04-16T18:28:25.134Z,47.01
2023-04-16T18:30:58.764Z,46.99
2023-04-16T18:33:52.392Z,46.90
2023-04-16T18:36:21.221Z,47.20
2023-04-16T18:39:00.848Z,47.16
2023-04-16T18:41:32.237Z,47.28
2023-04-16T18:44:02.689Z,47.27
2023-04-16T18:46:33.201Z,47.30
2023-04-16T18:49:03.705Z,47.67
2023-04-16T18:51:34.301Z,47.69
2023-04-16T18:54:04.964Z,47.77
2023-04-16T18:56:35.749Z,47.76
2023-04-16T18:59:06.518Z,47.92
2023-04-16T19:01:37.023Z,47.92
2023-04-16T19:04:07.880Z,47.88
2023-04-16T19:06:38.384Z,47.89
2023-04-16T19:09:11.230Z,47.78
2023-04-16T19:11:42.174Z,47.74
2023-04-16T19:14:12.703Z,47.85
2023-04-16T19:16:43.426Z,47.57
2023-04-16T19:19:14.062Z,47.63
2023-04-16T19:21:44.559Z,47.63
2023-04-16T19:24:15.034Z,47.60
2023-04-16T19:26:45.567Z,47.83
2023-04-16T19:29:18.026Z,47.78
2023-04-16T19:31:48.606Z,47.83
2023-04-16T19:34:19.209Z,47.92
2023-04-16T19:36:49.695Z,48.06
2023-04-16T19:39:20.240Z,48.29
2023-04-16T19:41:50.684Z,48.38
2023-04-16T19:44:23.150Z,48.53
2023-04-16T19:46:53.582Z,48.62
2023-04-16T19:49:25.363Z,48.79
2023-04-16T19:51:55.843Z,49.02
2023-04-16T19:54:26.460Z,49.12
2023-04-16T19:56:57.250Z,49.19
2023-04-16T19:59:28.715Z,49.40
2023-04-16T20:01:59.266Z,49.46
2023-04-16T20:04:29.833Z,49.56
2023-04-16T20:07:00.401Z,49.73
2023-04-16T20:09:31.116Z,49.87
2023-04-16T20:12:02.210Z,49.98
2023-04-16T20:14:32.695Z,50.10
2023-04-16T20:17:03.529Z,50.08
2023-04-16T20:19:37.890Z,50.29
2023-04-16T20:22:08.612Z,50.26
2023-04-16T20:24:39.399Z,50.45
2023-04-16T20:27:09.877Z,50.46
2023-04-16T20:29:40.438Z,50.61
2023-04-16T20:32:10.902Z,50.69
2023-04-16T20:34:41.446Z,50.82
2023-04-16T20:37:11.881Z,50.94
2023-04-16T20:39:42.385Z,51.10
2023-04-16T20:42:13.278Z,51.17
2023-04-16T20:44:50.292Z,51.21
2023-04-16T20:47:22.538Z,51.23
2023-04-16T20:49:54.728Z,51.30
2023-04-16T20:52:25.752Z,51.34
2023-04-16T20:54:56.272Z,51.37
2023-04-16T20:57:28.162Z,51.45
2023-04-16T21:04:06.784Z,51.74
2023-04-16T21:06:38.638Z,51.75
2023-04-16T21:09:07.747Z,51.86
2023-04-16T21:11:38.421Z,52.06
2023-04-16T21:14:08.887Z,52.25
2023-04-16T21:16:39.391Z,52.26
2023-04-16T21:19:09.998Z,52.27
2023-04-16T21:21:41.810Z,52.38
2023-04-16T21:24:12.464Z,52.46
2023-04-16T21:26:43.083Z,52.40
2023-04-16T21:29:13.769Z,52.51
2023-04-16T21:31:44.586Z,52.62
2023-04-16T21:34:15.079Z,52.56
2023-04-16T21:36:45.767Z,52.58
2023-04-16T21:39:17.549Z,52.68
2023-04-16T21:41:46.565Z,52.65
2023-04-16T21:44:17.134Z,52.79
2023-04-16T21:46:47.867Z,52.84
2023-04-16T21:49:18.350Z,52.91
2023-04-16T21:51:50.135Z,52.91
2023-04-16T21:54:20.305Z,53.04
2023-04-16T21:56:50.802Z,53.04
2023-04-16T21:59:21.340Z,53.24
2023-04-16T22:06:16.825Z,53.38
2023-04-16T22:08:50.033Z,53.45
2023-04-16T22:11:20.782Z,53.55
2023-04-16T22:13:51.899Z,53.63
2023-04-16T22:16:22.472Z,53.70
2023-04-16T22:18:55.124Z,53.72
2023-04-16T22:21:26.123Z,53.94
2023-04-16T22:23:56.618Z,53.86
2023-04-16T22:26:27.162Z,53.95
2023-04-16T22:28:57.662Z,54.04
2023-04-16T22:31:28.226Z,54.04
2023-04-16T22:33:58.774Z,54.05
2023-04-16T22:36:29.833Z,54.26
2023-04-16T22:39:00.662Z,54.20
2023-04-16T22:41:31.128Z,54.22
2023-04-16T22:44:01.636Z,54.37
2023-04-16T22:46:32.476Z,54.44
2023-04-16T22:49:03.108Z,54.39
2023-04-16T22:51:34.225Z,54.58
2023-04-16T22:54:05.075Z,54.46
2023-04-16T22:56:35.692Z,54.68
2023-04-16T22:59:06.180Z,54.72
2023-04-16T23:01:37.175Z,54.78
2023-04-16T23:04:07.912Z,54.81
2023-04-16T23:06:39.232Z,54.87
2023-04-16T23:09:09.999Z,54.93
2023-04-16T23:11:40.664Z,54.91
2023-04-16T23:14:11.171Z,55.09
2023-04-16T23:16:41.740Z,55.10
2023-04-16T23:19:14.956Z,55.21
2023-04-16T23:21:45.679Z,55.33
2023-04-16T23:24:17.138Z,55.26
2023-04-16T23:26:48.064Z,55.26
2023-04-16T23:29:18.509Z,55.33
2023-04-16T23:31:49.037Z,55.52
2023-04-16T23:34:19.488Z,55.66
2023-04-16T23:36:49.972Z,55.63
2023-04-16T23:39:20.459Z,55.63
2023-04-16T23:41:51.481Z,55.63
2023-04-16T23:44:21.956Z,55.73
2023-04-16T23:46:52.509Z,55.75
2023-04-16T23:49:23.003Z,55.85
2023-04-16T23:51:53.537Z,55.88
2023-04-16T23:54:24.307Z,55.95
2023-04-16T23:56:54.750Z,56.02
2023-04-16T23:59:25.459Z,55.99
